Time;durP1;ratioP1;P1;durP2;ratioP2;P2;SDS_P1;SDS_P2;PMS_P1;PMS_P2;Temp;Humidity;BMP_temperature;BMP_pressure;BME280_temperature;BME280_humidity;BME280_pressure;Samples;Min_cycle;Max_cycle;Signal;HPM_P1;HPM_P2
2023/09/19 00:01:45;;;;;;;6.60;2.90;;;;;;;;;;5078411;28;20226;-69
2023/09/19 00:04:15;;;;;;;5.03;2.47;;;;;;;;;;5077788;28;20206;-68
2023/09/19 00:06:44;;;;;;;5.00;2.80;;;;;;;;;;5078262;28;20258;-67
2023/09/19 00:09:12;;;;;;;2.23;2.03;;;;;;;;;;5078018;28;20637;-68
2023/09/19 00:11:41;;;;;;;5.80;2.53;;;;;;;;;;5078218;28;20288;-67
2023/09/19 00:14:09;;;;;;;2.93;2.20;;;;;;;;;;5078188;28;20219;-68
2023/09/19 00:16:37;;;;;;;4.33;2.37;;;;;;;;;;5078048;28;20252;-67
2023/09/19 00:19:08;;;;;;;3.50;2.27;;;;;;;;;;5077987;28;20202;-67
2023/09/19 00:21:38;;;;;;;5.47;2.87;;;;;;;;;;5077843;28;20233;-68
2023/09/19 00:24:06;;;;;;;2.87;2.03;;;;;;;;;;5077971;28;20206;-68
2023/09/19 00:26:34;;;;;;;2.50;2.30;;;;;;;;;;5077814;28;20210;-68
2023/09/19 00:29:08;;;;;;;4.97;2.17;;;;;;;;;;5077740;28;20242;-68
2023/09/19 00:31:37;;;;;;;5.00;2.10;;;;;;;;;;5077968;28;20236;-68
2023/09/19 00:34:06;;;;;;;3.73;2.00;;;;;;;;;;5077729;28;20214;-68
2023/09/19 00:36:34;;;;;;;6.63;2.47;;;;;;;;;;5077887;28;20208;-68
2023/09/19 00:39:05;;;;;;;4.53;1.60;;;;;;;;;;5077784;28;20209;-68
2023/09/19 00:41:35;;;;;;;4.10;2.07;;;;;;;;;;5077536;28;20275;-68
2023/09/19 00:44:04;;;;;;;4.37;2.10;;;;;;;;;;5078043;28;20221;-68
2023/09/19 00:46:32;;;;;;;3.97;2.07;;;;;;;;;;5077696;28;20201;-69
2023/09/19 00:49:01;;;;;;;3.33;1.90;;;;;;;;;;5077266;28;20630;-69
2023/09/19 00:51:29;;;;;;;3.73;2.20;;;;;;;;;;5077758;28;20246;-70
2023/09/19 00:53:59;;;;;;;2.40;1.80;;;;;;;;;;5077500;28;20207;-70
2023/09/19 00:56:29;;;;;;;2.20;1.97;;;;;;;;;;5077412;28;20581;-69
2023/09/19 00:58:57;;;;;;;7.50;2.50;;;;;;;;;;5077454;28;20678;-69
2023/09/19 01:01:26;;;;;;;3.97;1.90;;;;;;;;;;5077381;28;20226;-68
2023/09/19 01:03:54;;;;;;;4.93;2.50;;;;;;;;;;5077233;28;20236;-67
2023/09/19 01:06:22;;;;;;;4.13;2.30;;;;;;;;;;5077906;28;20209;-68
2023/09/19 01:08:50;;;;;;;6.77;2.23;;;;;;;;;;5077553;28;20285;-69
2023/09/19 01:11:21;;;;;;;4.10;2.20;;;;;;;;;;5077641;28;20233;-69
2023/09/19 01:13:57;;;;;;;7.77;2.43;;;;;;;;;;5077763;28;20204;-68
2023/09/19 01:16:31;;;;;;;3.20;2.00;;;;;;;;;;5077685;28;20205;-69
2023/09/19 01:19:03;;;;;;;4.67;2.17;;;;;;;;;;5077082;28;20208;-69
2023/09/19 01:21:38;;;;;;;3.57;2.80;;;;;;;;;;5077593;28;20232;-69
2023/09/19 01:24:23;;;;;;;2.60;2.40;;;;;;;;;;5077201;28;20681;-69
2023/09/19 01:27:08;;;;;;;3.67;2.50;;;;;;;;;;5077237;28;20209;-68
2023/09/19 01:29:40;;;;;;;6.73;2.30;;;;;;;;;;5077496;28;20203;-67
2023/09/19 01:32:10;;;;;;;2.67;2.10;;;;;;;;;;5077136;28;20203;-68
2023/09/19 01:34:47;;;;;;;5.07;2.23;;;;;;;;;;5080240;28;20202;-66
2023/09/19 01:37:19;;;;;;;2.23;1.90;;;;;;;;;;5081253;28;20208;-68
2023/09/19 01:39:49;;;;;;;2.67;1.90;;;;;;;;;;5080922;28;20223;-68
2023/09/19 01:42:22;;;;;;;4.77;2.20;;;;;;;;;;5080948;28;20217;-67
2023/09/19 01:44:53;;;;;;;2.83;2.10;;;;;;;;;;5081082;28;20216;-68
2023/09/19 01:47:27;;;;;;;4.93;2.03;;;;;;;;;;5080771;28;20208;-67
2023/09/19 01:50:00;;;;;;;6.10;2.03;;;;;;;;;;5080958;28;20220;-67
2023/09/19 01:52:31;;;;;;;4.70;1.40;;;;;;;;;;5080756;28;20214;-68
2023/09/19 01:55:05;;;;;;;4.30;1.60;;;;;;;;;;5080866;28;20206;-68
2023/09/19 01:57:35;;;;;;;3.13;1.33;;;;;;;;;;5080562;28;20266;-68
2023/09/19 02:00:06;;;;;;;2.80;1.10;;;;;;;;;;5072095;28;20689;-68
2023/09/19 02:02:36;;;;;;;1.00;1.00;;;;;;;;;;5080498;28;20206;-69
2023/09/19 02:05:06;;;;;;;1.47;1.33;;;;;;;;;;5080606;28;20211;-68
2023/09/19 02:07:37;;;;;;;4.23;1.10;;;;;;;;;;5080316;28;20274;-69
2023/09/19 02:10:06;;;;;;;1.90;1.20;;;;;;;;;;5080252;28;20670;-67
2023/09/19 02:12:35;;;;;;;1.90;1.00;;;;;;;;;;5080350;28;20294;-69
2023/09/19 02:15:06;;;;;;;2.23;1.00;;;;;;;;;;5080638;28;20210;-69
2023/09/19 02:17:36;;;;;;;2.77;0.83;;;;;;;;;;5080090;28;20205;-69
2023/09/19 02:20:14;;;;;;;2.03;1.17;;;;;;;;;;5080135;28;20255;-69
2023/09/19 02:22:44;;;;;;;1.73;1.03;;;;;;;;;;5080162;28;20205;-69
2023/09/19 02:25:13;;;;;;;2.37;0.90;;;;;;;;;;5080362;28;20238;-68
2023/09/19 02:27:41;;;;;;;4.63;1.00;;;;;;;;;;5080316;28;20216;-68
2023/09/19 02:30:10;;;;;;;1.53;0.90;;;;;;;;;;5079889;28;20233;-69
2023/09/19 02:32:39;;;;;;;2.20;0.70;;;;;;;;;;5080035;28;20205;-69
2023/09/19 02:35:10;;;;;;;1.30;0.70;;;;;;;;;;5079909;28;20572;-69
2023/09/19 02:37:39;;;;;;;3.67;0.90;;;;;;;;;;5079992;28;20206;-68
2023/09/19 02:40:18;;;;;;;1.57;0.70;;;;;;;;;;5079804;28;20237;-68
2023/09/19 02:42:48;;;;;;;1.53;0.60;;;;;;;;;;5079862;28;20658;-68
2023/09/19 02:45:18;;;;;;;1.50;0.70;;;;;;;;;;5079804;28;20249;-68
2023/09/19 02:47:48;;;;;;;1.70;0.70;;;;;;;;;;5079469;28;20202;-68
2023/09/19 02:50:17;;;;;;;0.77;0.60;;;;;;;;;;5079585;28;20231;-68
2023/09/19 02:52:47;;;;;;;2.33;0.83;;;;;;;;;;5079554;28;20252;-69
2023/09/19 02:55:17;;;;;;;0.80;0.60;;;;;;;;;;5079353;28;20272;-69
2023/09/19 02:57:47;;;;;;;1.37;0.43;;;;;;;;;;5079537;28;20580;-69
2023/09/19 03:00:15;;;;;;;1.60;0.60;;;;;;;;;;5079643;28;20278;-69
2023/09/19 03:02:44;;;;;;;0.93;0.50;;;;;;;;;;5079129;28;20254;-69
2023/09/19 03:05:14;;;;;;;0.97;0.60;;;;;;;;;;5079670;28;20214;-68
2023/09/19 03:07:42;;;;;;;0.60;0.60;;;;;;;;;;5079314;28;20215;-68
2023/09/19 03:10:11;;;;;;;1.60;0.63;;;;;;;;;;5079347;28;20259;-68
2023/09/19 03:12:40;;;;;;;2.20;1.03;;;;;;;;;;5079463;28;20261;-68
2023/09/19 03:15:09;;;;;;;0.70;0.50;;;;;;;;;;5079446;28;20203;-69
2023/09/19 03:17:37;;;;;;;0.83;0.70;;;;;;;;;;5078902;28;20199;-69
2023/09/19 03:20:08;;;;;;;0.40;0.40;;;;;;;;;;5079371;28;20223;-69
2023/09/19 03:22:38;;;;;;;0.50;0.47;;;;;;;;;;5079024;28;20207;-69
2023/09/19 03:25:07;;;;;;;0.57;0.57;;;;;;;;;;5078906;28;20214;-69
2023/09/19 03:27:36;;;;;;;0.80;0.80;;;;;;;;;;5078942;28;20211;-69
2023/09/19 03:30:08;;;;;;;0.67;0.47;;;;;;;;;;5078990;28;20296;-69
2023/09/19 03:32:36;;;;;;;0.53;0.53;;;;;;;;;;5078868;28;20225;-69
2023/09/19 03:35:05;;;;;;;0.80;0.60;;;;;;;;;;5078799;28;20624;-69
2023/09/19 03:37:34;;;;;;;0.87;0.60;;;;;;;;;;5078990;28;20206;-69
2023/09/19 03:40:05;;;;;;;2.10;0.67;;;;;;;;;;5078631;28;20236;-69
2023/09/19 03:42:35;;;;;;;0.50;0.50;;;;;;;;;;5078984;28;20208;-66
2023/09/19 03:45:05;;;;;;;0.50;0.50;;;;;;;;;;5078541;28;20647;-67
2023/09/19 03:47:33;;;;;;;1.00;0.50;;;;;;;;;;5078308;28;20210;-66
2023/09/19 03:50:03;;;;;;;0.67;0.60;;;;;;;;;;5078430;28;20587;-65
2023/09/19 03:52:31;;;;;;;0.70;0.70;;;;;;;;;;5078443;28;20286;-66
2023/09/19 03:55:02;;;;;;;0.90;0.80;;;;;;;;;;5078439;28;20204;-66
2023/09/19 03:57:31;;;;;;;0.60;0.60;;;;;;;;;;5075134;28;20299;-66
2023/09/19 04:00:00;;;;;;;0.90;0.50;;;;;;;;;;5078124;28;20217;-65
2023/09/19 04:02:32;;;;;;;0.90;0.67;;;;;;;;;;5077725;28;20288;-66
2023/09/19 04:05:01;;;;;;;1.43;1.00;;;;;;;;;;5075735;28;20202;-65
2023/09/19 04:07:29;;;;;;;0.50;0.50;;;;;;;;;;5077984;28;20207;-66
2023/09/19 04:09:58;;;;;;;1.57;0.80;;;;;;;;;;5077385;28;20228;-65
2023/09/19 04:12:26;;;;;;;3.07;0.60;;;;;;;;;;5077959;28;20209;-65
2023/09/19 04:14:55;;;;;;;0.90;0.60;;;;;;;;;;5077658;28;20222;-67
2023/09/19 04:17:23;;;;;;;0.47;0.47;;;;;;;;;;5076343;28;20218;-67
2023/09/19 04:19:52;;;;;;;1.50;0.70;;;;;;;;;;5077858;28;20223;-67
2023/09/19 04:22:20;;;;;;;0.30;0.30;;;;;;;;;;5075491;28;20213;-66
2023/09/19 04:24:48;;;;;;;1.00;0.80;;;;;;;;;;5077902;28;20217;-67
2023/09/19 04:27:16;;;;;;;1.77;0.80;;;;;;;;;;5074890;28;20203;-66
2023/09/19 04:29:44;;;;;;;3.73;0.50;;;;;;;;;;5077692;28;20242;-66
2023/09/19 04:32:13;;;;;;;0.57;0.50;;;;;;;;;;5077811;28;20199;-66
2023/09/19 04:34:41;;;;;;;1.80;0.77;;;;;;;;;;5077679;28;20249;-67
2023/09/19 04:37:10;;;;;;;2.20;0.53;;;;;;;;;;5077998;28;20210;-67
2023/09/19 04:39:39;;;;;;;2.23;0.73;;;;;;;;;;5077532;28;20298;-66
2023/09/19 04:42:07;;;;;;;1.57;0.93;;;;;;;;;;5077965;28;20561;-67
2023/09/19 04:44:38;;;;;;;0.63;0.50;;;;;;;;;;5078989;28;20206;-67
2023/09/19 04:47:06;;;;;;;0.53;0.53;;;;;;;;;;5076040;28;20203;-67
2023/09/19 04:49:36;;;;;;;1.17;0.50;;;;;;;;;;5077473;28;20219;-67
2023/09/19 04:52:05;;;;;;;0.50;0.40;;;;;;;;;;5075052;28;20207;-67
2023/09/19 04:54:34;;;;;;;2.60;0.60;;;;;;;;;;5077617;28;20609;-67
2023/09/19 04:57:02;;;;;;;1.30;0.43;;;;;;;;;;5077405;28;20249;-67
2023/09/19 04:59:31;;;;;;;0.80;0.53;;;;;;;;;;5077358;28;20215;-67
2023/09/19 05:01:59;;;;;;;1.17;0.67;;;;;;;;;;5077496;28;20296;-67
2023/09/19 05:04:30;;;;;;;0.73;0.57;;;;;;;;;;5077502;28;20252;-67
2023/09/19 05:07:01;;;;;;;1.67;0.43;;;;;;;;;;5077694;28;20210;-67
2023/09/19 05:09:29;;;;;;;1.67;0.67;;;;;;;;;;5080150;28;20228;-65
2023/09/19 05:11:58;;;;;;;0.67;0.67;;;;;;;;;;5081650;28;20222;-66
2023/09/19 05:14:26;;;;;;;0.83;0.60;;;;;;;;;;5081821;28;20213;-66
2023/09/19 05:16:54;;;;;;;1.30;0.70;;;;;;;;;;5081403;28;20235;-67
2023/09/19 05:19:22;;;;;;;2.07;1.13;;;;;;;;;;5081451;28;20210;-65
2023/09/19 05:21:50;;;;;;;1.60;0.70;;;;;;;;;;5081439;28;20250;-65
2023/09/19 05:24:20;;;;;;;1.20;0.70;;;;;;;;;;5080983;28;20215;-65
2023/09/19 05:26:48;;;;;;;2.50;0.90;;;;;;;;;;5081345;28;20209;-65
2023/09/19 05:29:16;;;;;;;0.77;0.77;;;;;;;;;;5081271;28;20208;-66
2023/09/19 05:31:44;;;;;;;0.97;0.80;;;;;;;;;;5080987;28;20259;-66
2023/09/19 05:34:12;;;;;;;4.70;0.80;;;;;;;;;;5080450;28;20322;-66
2023/09/19 05:36:40;;;;;;;0.77;0.60;;;;;;;;;;5080741;28;20236;-65
2023/09/19 05:39:09;;;;;;;1.17;0.80;;;;;;;;;;5081072;28;20209;-65
2023/09/19 05:41:39;;;;;;;1.37;0.50;;;;;;;;;;5080666;28;20691;-66
2023/09/19 05:44:08;;;;;;;1.23;0.70;;;;;;;;;;5080929;28;20553;-66
2023/09/19 05:46:36;;;;;;;0.87;0.83;;;;;;;;;;5081013;28;20260;-66
2023/09/19 05:49:04;;;;;;;1.80;1.00;;;;;;;;;;5080653;28;20615;-66
2023/09/19 05:51:32;;;;;;;3.27;1.50;;;;;;;;;;5080508;28;20596;-69
2023/09/19 05:54:00;;;;;;;3.73;1.73;;;;;;;;;;5080450;28;20294;-66
2023/09/19 05:56:28;;;;;;;3.40;1.60;;;;;;;;;;5080549;28;20238;-67
2023/09/19 05:58:57;;;;;;;1.00;0.90;;;;;;;;;;5080103;28;20198;-68
2023/09/19 06:01:26;;;;;;;1.47;0.90;;;;;;;;;;5080441;28;20214;-67
2023/09/19 06:03:55;;;;;;;2.23;1.07;;;;;;;;;;5080162;28;20262;-68
2023/09/19 06:06:24;;;;;;;2.77;0.73;;;;;;;;;;5080927;28;20209;-66
2023/09/19 06:08:52;;;;;;;5.00;0.93;;;;;;;;;;5080292;28;20672;-67
2023/09/19 06:11:20;;;;;;;3.10;0.73;;;;;;;;;;5080253;28;20233;-66
2023/09/19 06:13:48;;;;;;;1.00;0.80;;;;;;;;;;5080480;28;20668;-66
2023/09/19 06:16:19;;;;;;;0.90;0.90;;;;;;;;;;5080571;28;20269;-67
2023/09/19 06:18:52;;;;;;;2.43;1.00;;;;;;;;;;5074021;28;20198;-67
2023/09/19 06:21:20;;;;;;;1.47;0.90;;;;;;;;;;5080201;28;20226;-66
2023/09/19 06:23:48;;;;;;;2.00;0.80;;;;;;;;;;5080211;28;20208;-67
2023/09/19 06:26:17;;;;;;;1.33;0.80;;;;;;;;;;5080304;28;20241;-66
2023/09/19 06:28:45;;;;;;;2.17;0.90;;;;;;;;;;5080132;28;20709;-66
2023/09/19 06:31:13;;;;;;;1.20;1.10;;;;;;;;;;5079960;28;20296;-66
2023/09/19 06:33:43;;;;;;;1.63;1.00;;;;;;;;;;5079844;28;20215;-66
2023/09/19 06:36:11;;;;;;;3.03;1.00;;;;;;;;;;5079986;28;20210;-66
2023/09/19 06:38:39;;;;;;;1.63;1.00;;;;;;;;;;5079791;28;20221;-66
2023/09/19 06:41:08;;;;;;;1.17;0.77;;;;;;;;;;5079838;28;20696;-67
2023/09/19 06:43:36;;;;;;;1.17;1.07;;;;;;;;;;5079918;28;20208;-66
2023/09/19 06:46:07;;;;;;;1.70;0.90;;;;;;;;;;5079865;28;20209;-68
2023/09/19 06:48:35;;;;;;;1.10;1.00;;;;;;;;;;5079272;28;20661;-66
2023/09/19 06:51:05;;;;;;;1.97;1.00;;;;;;;;;;5079479;28;20594;-68
2023/09/19 06:53:34;;;;;;;1.57;1.20;;;;;;;;;;5079282;28;20225;-69
2023/09/19 06:56:03;;;;;;;1.27;1.10;;;;;;;;;;5090576;28;20670;-67
2023/09/19 06:58:31;;;;;;;1.50;0.90;;;;;;;;;;5079504;28;20211;-68
2023/09/19 07:00:59;;;;;;;2.47;1.03;;;;;;;;;;5079528;28;20587;-68
2023/09/19 07:03:28;;;;;;;2.30;1.10;;;;;;;;;;5079422;28;20741;-71
2023/09/19 07:05:58;;;;;;;1.63;1.13;;;;;;;;;;5076421;28;20557;-70
2023/09/19 07:08:28;;;;;;;1.57;1.00;;;;;;;;;;5075845;28;20261;-68
2023/09/19 07:10:57;;;;;;;4.97;1.20;;;;;;;;;;5077115;28;20652;-69
2023/09/19 07:13:25;;;;;;;2.73;1.23;;;;;;;;;;5069657;28;20211;-70
2023/09/19 07:15:54;;;;;;;3.43;1.23;;;;;;;;;;5079438;28;20209;-69
2023/09/19 07:18:22;;;;;;;3.83;1.13;;;;;;;;;;5073495;28;20718;-69
2023/09/19 07:20:50;;;;;;;4.53;1.43;;;;;;;;;;5079157;28;20229;-71
2023/09/19 07:23:20;;;;;;;3.63;1.10;;;;;;;;;;5076048;28;20210;-68
2023/09/19 07:25:50;;;;;;;4.33;1.00;;;;;;;;;;5077079;28;20202;-69
2023/09/19 07:28:19;;;;;;;1.20;1.07;;;;;;;;;;5079443;28;20222;-69
2023/09/19 07:30:47;;;;;;;3.20;1.20;;;;;;;;;;5078266;28;20316;-71
2023/09/19 07:33:15;;;;;;;3.13;1.07;;;;;;;;;;5078826;28;20214;-71
2023/09/19 07:35:46;;;;;;;2.03;1.17;;;;;;;;;;5073062;28;20731;-71
2023/09/19 07:38:14;;;;;;;4.00;1.23;;;;;;;;;;5069682;28;20225;-72
2023/09/19 07:40:42;;;;;;;2.13;0.80;;;;;;;;;;5079290;28;20227;-71
2023/09/19 07:43:12;;;;;;;2.83;1.00;;;;;;;;;;5073056;28;20218;-70
2023/09/19 07:45:40;;;;;;;2.33;1.23;;;;;;;;;;5067004;28;20216;-71
2023/09/19 07:48:14;;;;;;;1.70;1.20;;;;;;;;;;5078580;28;20215;-70
2023/09/19 07:50:43;;;;;;;1.53;1.10;;;;;;;;;;5078897;28;20228;-70
2023/09/19 07:53:13;;;;;;;3.10;0.93;;;;;;;;;;5078695;28;20211;-70
2023/09/19 07:55:42;;;;;;;1.33;0.83;;;;;;;;;;5078178;28;20253;-71
2023/09/19 07:58:13;;;;;;;2.43;0.93;;;;;;;;;;5074401;28;20287;-70
2023/09/19 08:00:41;;;;;;;1.73;1.03;;;;;;;;;;5075316;28;20227;-70
2023/09/19 08:03:14;;;;;;;3.33;1.40;;;;;;;;;;5078100;28;20678;-71
2023/09/19 08:05:45;;;;;;;2.87;1.30;;;;;;;;;;5078451;28;20258;-71
2023/09/19 08:08:14;;;;;;;3.77;1.10;;;;;;;;;;5078337;28;20216;-71
2023/09/19 08:10:45;;;;;;;1.93;1.20;;;;;;;;;;5077977;28;20230;-70
2023/09/19 08:13:17;;;;;;;2.93;1.70;;;;;;;;;;5078539;28;20213;-70
2023/09/19 08:15:45;;;;;;;2.37;1.17;;;;;;;;;;5075527;28;20280;-71
2023/09/19 08:18:14;;;;;;;2.00;0.90;;;;;;;;;;5072698;28;20196;-70
2023/09/19 08:20:46;;;;;;;1.80;1.10;;;;;;;;;;5078167;28;20260;-70
2023/09/19 08:23:14;;;;;;;5.43;1.23;;;;;;;;;;5078452;28;20285;-69
2023/09/19 08:25:42;;;;;;;1.67;1.00;;;;;;;;;;5078035;28;20658;-70
2023/09/19 08:28:12;;;;;;;3.60;1.07;;;;;;;;;;5072998;28;20676;-69
2023/09/19 08:30:41;;;;;;;3.13;0.80;;;;;;;;;;5077622;28;20712;-69
2023/09/19 08:33:10;;;;;;;7.20;1.20;;;;;;;;;;5064802;28;20709;-68
2023/09/19 08:35:39;;;;;;;2.03;1.30;;;;;;;;;;5077268;28;20282;-71
2023/09/19 08:38:07;;;;;;;4.57;1.00;;;;;;;;;;5077677;28;20236;-68
2023/09/19 08:40:39;;;;;;;1.93;1.40;;;;;;;;;;5066660;28;20228;-69
2023/09/19 08:43:08;;;;;;;2.00;1.13;;;;;;;;;;5077477;28;20205;-69
2023/09/19 08:45:37;;;;;;;0.97;0.90;;;;;;;;;;5077935;28;20217;-69
2023/09/19 08:48:11;;;;;;;3.33;0.93;;;;;;;;;;5077370;28;20212;-67
2023/09/19 08:50:44;;;;;;;3.17;1.23;;;;;;;;;;5070935;28;20276;-70
2023/09/19 08:53:12;;;;;;;1.83;1.03;;;;;;;;;;5077481;28;20231;-69
2023/09/19 08:55:41;;;;;;;2.50;1.10;;;;;;;;;;5077599;28;20247;-67
2023/09/19 08:58:13;;;;;;;1.63;1.13;;;;;;;;;;5077430;28;20628;-70
2023/09/19 09:00:42;;;;;;;2.60;1.37;;;;;;;;;;5077440;28;20654;-69
2023/09/19 09:03:12;;;;;;;4.87;1.30;;;;;;;;;;5073422;28;20569;-69
2023/09/19 09:05:43;;;;;;;1.77;0.97;;;;;;;;;;5077568;28;20670;-69
2023/09/19 09:08:11;;;;;;;2.33;0.80;;;;;;;;;;5077578;28;20203;-68
2023/09/19 09:10:40;;;;;;;4.00;1.20;;;;;;;;;;5077431;28;20230;-68
2023/09/19 09:13:09;;;;;;;1.50;1.20;;;;;;;;;;5077608;28;20234;-68
2023/09/19 09:15:37;;;;;;;3.23;1.27;;;;;;;;;;5061428;28;20200;-71
2023/09/19 09:18:05;;;;;;;1.10;1.00;;;;;;;;;;5076993;28;20262;-69
2023/09/19 09:20:35;;;;;;;2.83;0.93;;;;;;;;;;5068986;28;20292;-70
2023/09/19 09:23:04;;;;;;;3.33;1.27;;;;;;;;;;5074004;28;20292;-70
2023/09/19 09:25:50;;;;;;;2.37;1.13;;;;;;;;;;5073588;28;20205;-71
2023/09/19 09:28:20;;;;;;;1.87;1.03;;;;;;;;;;5077440;28;20215;-69
2023/09/19 09:30:48;;;;;;;0.97;0.93;;;;;;;;;;5077526;28;20229;-69
2023/09/19 09:33:17;;;;;;;3.83;0.90;;;;;;;;;;5076988;28;20230;-69
2023/09/19 09:35:52;;;;;;;1.57;1.03;;;;;;;;;;5077003;28;20207;-70
2023/09/19 09:38:21;;;;;;;1.17;0.90;;;;;;;;;;5077047;28;20206;-70
2023/09/19 09:40:53;;;;;;;4.77;1.40;;;;;;;;;;5076051;28;20227;-71
2023/09/19 09:43:28;;;;;;;1.03;0.77;;;;;;;;;;5076872;28;20218;-70
2023/09/19 09:46:50;;;;;;;2.27;1.20;;;;;;;;;;5075512;28;20367;-69
2023/09/19 09:49:16;;;;;;;1.40;1.10;;;;;;;;;;5072732;28;20205;-70
2023/09/19 09:51:57;;;;;;;3.30;0.97;;;;;;;;;;5076813;28;20608;-68
2023/09/19 09:54:27;;;;;;;2.57;1.10;;;;;;;;;;5077779;28;20218;-70
2023/09/19 09:56:58;;;;;;;1.63;1.07;;;;;;;;;;5078185;28;20240;-71
2023/09/19 09:59:47;;;;;;;2.93;1.10;;;;;;;;;;5080366;28;20294;-71
2023/09/19 10:02:20;;;;;;;2.53;1.33;;;;;;;;;;5080769;28;20213;-72
2023/09/19 10:04:58;;;;;;;1.67;1.50;;;;;;;;;;5080968;28;20270;-72
2023/09/19 10:07:32;;;;;;;4.77;1.20;;;;;;;;;;5080609;28;20235;-72
2023/09/19 10:10:15;;;;;;;1.33;1.20;;;;;;;;;;5080525;28;20237;-67
2023/09/19 10:12:48;;;;;;;2.53;1.20;;;;;;;;;;5080199;28;20227;-67
2023/09/19 10:15:20;;;;;;;3.57;1.20;;;;;;;;;;5080326;28;20233;-67
2023/09/19 10:17:48;;;;;;;1.87;1.27;;;;;;;;;;5074416;28;20251;-67
2023/09/19 10:20:33;;;;;;;1.77;1.07;;;;;;;;;;5080440;28;20234;-67
2023/09/19 10:23:09;;;;;;;1.90;1.27;;;;;;;;;;5080264;28;20208;-67
2023/09/19 10:25:38;;;;;;;2.57;1.20;;;;;;;;;;5080459;28;20240;-67
2023/09/19 10:28:11;;;;;;;3.13;1.27;;;;;;;;;;5076113;28;20296;-67
2023/09/19 10:30:44;;;;;;;3.17;1.23;;;;;;;;;;5079981;28;20708;-67
2023/09/19 10:33:13;;;;;;;2.07;1.40;;;;;;;;;;5079881;28;20627;-66
2023/09/19 10:35:43;;;;;;;1.30;1.00;;;;;;;;;;5080421;28;20285;-70
2023/09/19 10:38:14;;;;;;;3.43;0.93;;;;;;;;;;5079781;28;20677;-69
2023/09/19 10:40:48;;;;;;;1.47;0.93;;;;;;;;;;5077098;28;20218;-70
2023/09/19 10:43:18;;;;;;;0.90;0.87;;;;;;;;;;5076262;28;20211;-69
2023/09/19 10:45:49;;;;;;;1.90;1.00;;;;;;;;;;5079928;28;20209;-69
2023/09/19 10:48:19;;;;;;;3.10;1.23;;;;;;;;;;5077459;28;20216;-70
2023/09/19 10:50:51;;;;;;;2.67;1.23;;;;;;;;;;5079780;28;20630;-69
2023/09/19 10:53:21;;;;;;;1.50;1.17;;;;;;;;;;5079371;28;20593;-69
2023/09/19 10:55:51;;;;;;;1.13;1.00;;;;;;;;;;5079010;28;20236;-69
2023/09/19 10:58:28;;;;;;;3.07;1.57;;;;;;;;;;5076532;28;20233;-70
2023/09/19 11:01:01;;;;;;;0.73;0.73;;;;;;;;;;5079070;28;20299;-72
2023/09/19 11:03:31;;;;;;;1.27;1.00;;;;;;;;;;5079127;28;20198;-72
2023/09/19 11:06:14;;;;;;;1.13;0.80;;;;;;;;;;5079314;28;20283;-71
2023/09/19 11:09:23;;;;;;;2.27;1.30;;;;;;;;;;5076643;28;20572;-64
2023/09/19 11:11:52;;;;;;;1.30;0.90;;;;;;;;;;5077819;28;20225;-65
2023/09/19 11:14:31;;;;;;;1.27;1.10;;;;;;;;;;5076872;28;20743;-65
2023/09/19 11:17:20;;;;;;;2.53;1.63;;;;;;;;;;5074215;28;20685;-64
2023/09/19 11:20:15;;;;;;;1.60;1.30;;;;;;;;;;5068291;28;20210;-65
2023/09/19 11:22:59;;;;;;;6.63;2.40;;;;;;;;;;5078874;28;20235;-65
2023/09/19 11:25:47;;;;;;;3.60;1.30;;;;;;;;;;5078865;28;20211;-66
2023/09/19 11:28:38;;;;;;;2.20;1.03;;;;;;;;;;5078656;28;20217;-66
2023/09/19 11:31:25;;;;;;;2.40;1.30;;;;;;;;;;5077036;28;20224;-66
2023/09/19 11:34:25;;;;;;;3.27;1.30;;;;;;;;;;5072609;28;20763;-66
2023/09/19 11:36:54;;;;;;;4.23;1.20;;;;;;;;;;5076872;28;20251;-66
2023/09/19 11:39:26;;;;;;;2.60;1.43;;;;;;;;;;5078374;28;20204;-66
2023/09/19 11:41:56;;;;;;;2.33;1.20;;;;;;;;;;5077971;28;20268;-66
2023/09/19 11:44:37;;;;;;;4.17;1.00;;;;;;;;;;5076448;28;20202;-65
2023/09/19 11:47:06;;;;;;;3.50;1.10;;;;;;;;;;5078621;28;20205;-66
2023/09/19 11:49:36;;;;;;;3.00;1.20;;;;;;;;;;5078546;28;20656;-66
2023/09/19 11:52:08;;;;;;;2.90;1.10;;;;;;;;;;5078537;28;20205;-66
2023/09/19 11:54:40;;;;;;;1.70;1.20;;;;;;;;;;5078283;28;20279;-66
2023/09/19 11:57:08;;;;;;;1.93;1.30;;;;;;;;;;5078048;28;20237;-66
2023/09/19 11:59:39;;;;;;;2.23;1.43;;;;;;;;;;5078312;28;20236;-66
2023/09/19 12:02:10;;;;;;;1.20;1.10;;;;;;;;;;5078010;28;20235;-66
2023/09/19 12:04:43;;;;;;;3.00;1.10;;;;;;;;;;5078455;28;20213;-66
2023/09/19 12:07:15;;;;;;;1.30;1.20;;;;;;;;;;5078195;28;20238;-66
2023/09/19 12:09:47;;;;;;;2.13;1.20;;;;;;;;;;5077959;28;20638;-66
2023/09/19 12:12:20;;;;;;;1.50;0.90;;;;;;;;;;5078397;28;20206;-66
2023/09/19 12:14:50;;;;;;;3.47;1.10;;;;;;;;;;5077978;28;20232;-66
2023/09/19 12:17:22;;;;;;;1.23;1.10;;;;;;;;;;5077394;28;20212;-66
2023/09/19 12:19:51;;;;;;;1.53;0.87;;;;;;;;;;5078066;28;20210;-66
2023/09/19 12:22:20;;;;;;;1.23;1.10;;;;;;;;;;5078093;28;20209;-66
2023/09/19 12:24:50;;;;;;;2.20;0.90;;;;;;;;;;5078189;28;20210;-66
2023/09/19 12:27:18;;;;;;;1.83;1.10;;;;;;;;;;5078337;28;20263;-67
2023/09/19 12:29:48;;;;;;;1.10;0.90;;;;;;;;;;5077905;28;20653;-66
2023/09/19 12:32:19;;;;;;;5.13;1.10;;;;;;;;;;5077602;28;20679;-66
2023/09/19 12:34:54;;;;;;;1.00;0.90;;;;;;;;;;5077972;28;20224;-66
2023/09/19 12:37:27;;;;;;;1.10;0.87;;;;;;;;;;5078049;28;20205;-66
2023/09/19 12:40:14;;;;;;;2.70;1.00;;;;;;;;;;5077733;28;20282;-66
2023/09/19 12:42:44;;;;;;;1.30;1.10;;;;;;;;;;5078096;28;20217;-66
2023/09/19 12:45:13;;;;;;;0.80;0.80;;;;;;;;;;5077988;28;20231;-66
2023/09/19 12:48:02;;;;;;;0.90;0.80;;;;;;;;;;5077459;28;20234;-66
2023/09/19 12:50:32;;;;;;;1.63;1.07;;;;;;;;;;5077533;28;20712;-66
2023/09/19 12:53:00;;;;;;;0.83;0.83;;;;;;;;;;5077752;28;20209;-66
2023/09/19 12:55:32;;;;;;;1.30;0.70;;;;;;;;;;5077428;28;20231;-66
2023/09/19 12:58:05;;;;;;;2.63;0.90;;;;;;;;;;5077459;28;20620;-66
2023/09/19 13:00:35;;;;;;;2.00;1.17;;;;;;;;;;5077463;28;20228;-66
2023/09/19 13:03:15;;;;;;;1.80;0.93;;;;;;;;;;5077455;28;20209;-66
2023/09/19 13:05:51;;;;;;;1.03;0.87;;;;;;;;;;5077586;28;20211;-66
2023/09/19 13:08:21;;;;;;;1.07;0.90;;;;;;;;;;5077549;28;20216;-66
2023/09/19 13:11:09;;;;;;;1.67;0.97;;;;;;;;;;5077636;28;20229;-66
2023/09/19 13:13:38;;;;;;;2.17;0.90;;;;;;;;;;5077387;28;20659;-67
2023/09/19 13:16:08;;;;;;;1.30;0.80;;;;;;;;;;5077302;28;20213;-66
2023/09/19 13:18:45;;;;;;;1.33;0.93;;;;;;;;;;5076966;28;20569;-66
2023/09/19 13:21:22;;;;;;;0.83;0.83;;;;;;;;;;5077359;28;20228;-67
2023/09/19 13:23:51;;;;;;;2.27;1.20;;;;;;;;;;5077141;28;20207;-67
2023/09/19 13:26:19;;;;;;;1.47;1.00;;;;;;;;;;5077579;28;20207;-67
2023/09/19 13:28:49;;;;;;;1.40;0.93;;;;;;;;;;5077546;28;20217;-67
2023/09/19 13:31:18;;;;;;;1.53;1.03;;;;;;;;;;5080977;28;20259;-67
2023/09/19 13:33:48;;;;;;;1.70;0.90;;;;;;;;;;5081206;28;20208;-67
2023/09/19 13:36:18;;;;;;;0.93;0.83;;;;;;;;;;5081384;28;20208;-67
2023/09/19 13:38:48;;;;;;;1.23;1.13;;;;;;;;;;5080808;28;20212;-67
2023/09/19 13:41:17;;;;;;;2.30;0.77;;;;;;;;;;5080815;28;20256;-67
2023/09/19 13:43:48;;;;;;;1.70;0.97;;;;;;;;;;5081069;28;20230;-66
2023/09/19 13:46:17;;;;;;;1.77;1.00;;;;;;;;;;5080674;28;20212;-66
2023/09/19 13:48:47;;;;;;;3.43;1.00;;;;;;;;;;5078915;28;20199;-66
2023/09/19 13:51:15;;;;;;;4.10;0.90;;;;;;;;;;5080735;28;20237;-66
2023/09/19 13:53:43;;;;;;;1.33;1.00;;;;;;;;;;5080717;28;20660;-66
2023/09/19 13:56:12;;;;;;;2.00;1.07;;;;;;;;;;5080742;28;20235;-66
2023/09/19 13:58:41;;;;;;;4.83;1.03;;;;;;;;;;5080663;28;20249;-67
2023/09/19 14:01:12;;;;;;;3.50;1.17;;;;;;;;;;5080773;28;20256;-66
2023/09/19 14:03:40;;;;;;;1.07;0.80;;;;;;;;;;5080245;28;20216;-67
2023/09/19 14:06:11;;;;;;;2.30;1.07;;;;;;;;;;5080433;28;20278;-67
2023/09/19 14:08:39;;;;;;;1.10;0.77;;;;;;;;;;5080204;28;20200;-66
2023/09/19 14:11:08;;;;;;;1.97;0.80;;;;;;;;;;5080109;28;20243;-66
2023/09/19 14:13:36;;;;;;;1.10;0.90;;;;;;;;;;5079948;28;20200;-67
2023/09/19 14:16:05;;;;;;;1.40;0.87;;;;;;;;;;5080113;28;20225;-67
2023/09/19 14:18:33;;;;;;;1.87;1.17;;;;;;;;;;5077618;28;20200;-66
2023/09/19 14:21:04;;;;;;;0.80;0.80;;;;;;;;;;5080350;28;20232;-67
2023/09/19 14:23:37;;;;;;;1.30;0.87;;;;;;;;;;5080170;28;20207;-66
2023/09/19 14:26:06;;;;;;;2.07;0.97;;;;;;;;;;5080255;28;20216;-66
2023/09/19 14:28:34;;;;;;;2.03;1.00;;;;;;;;;;5080386;28;20204;-66
2023/09/19 14:31:07;;;;;;;1.17;0.77;;;;;;;;;;5080355;28;20230;-65
2023/09/19 14:33:35;;;;;;;0.87;0.70;;;;;;;;;;5079843;28;20207;-65
2023/09/19 14:36:08;;;;;;;1.53;0.80;;;;;;;;;;5080324;28;20264;-67
2023/09/19 14:38:39;;;;;;;0.93;0.77;;;;;;;;;;5080019;28;20213;-65
2023/09/19 14:41:07;;;;;;;1.40;0.90;;;;;;;;;;5079773;28;20229;-66
2023/09/19 14:43:35;;;;;;;1.27;0.70;;;;;;;;;;5080202;28;20209;-67
2023/09/19 14:46:04;;;;;;;2.03;1.33;;;;;;;;;;5080087;28;20194;-67
2023/09/19 14:48:32;;;;;;;2.40;0.80;;;;;;;;;;5079621;28;20238;-67
2023/09/19 14:51:03;;;;;;;1.97;1.20;;;;;;;;;;5079959;28;20232;-67
2023/09/19 14:53:31;;;;;;;2.33;1.00;;;;;;;;;;5079585;28;20205;-67
2023/09/19 14:56:03;;;;;;;0.80;0.80;;;;;;;;;;5079104;28;20242;-65
2023/09/19 14:58:31;;;;;;;1.03;0.97;;;;;;;;;;5079702;28;20217;-65
2023/09/19 15:01:04;;;;;;;1.83;1.13;;;;;;;;;;5079333;28;20229;-65
2023/09/19 15:03:32;;;;;;;1.00;0.90;;;;;;;;;;5079204;28;20206;-65
2023/09/19 15:06:01;;;;;;;1.23;1.13;;;;;;;;;;5079761;28;20211;-64